sensor_id;sensor_type;location;lat;lon;timestamp;pressure;altitude;pressure_sealevel;temperature;humidity
71774;BME280;59607;52.130;5.430;2023-05-22T00:01:43;101658.75;;;16.23;100.00
71774;BME280;59607;52.130;5.430;2023-05-22T00:04:12;101658.75;;;16.23;100.00
71774;BME280;59607;52.130;5.430;2023-05-22T00:06:53;101656.75;;;16.25;100.00
71774;BME280;59607;52.130;5.430;2023-05-22T00:09:20;101654.47;;;16.22;100.00
71774;BME280;59607;52.130;5.430;2023-05-22T00:11:56;101650.63;;;16.24;100.00
71774;BME280;59607;52.130;5.430;2023-05-22T00:14:23;101649.38;;;16.20;100.00
71774;BME280;59607;52.130;5.430;2023-05-22T00:16:52;101646.06;;;16.18;100.00
71774;BME280;59607;52.130;5.430;2023-05-22T00:19:20;101643.41;;;16.18;100.00
71774;BME280;59607;52.130;5.430;2023-05-22T00:21:48;101642.41;;;16.19;100.00
71774;BME280;59607;52.130;5.430;2023-05-22T00:24:23;101631.72;;;16.12;100.00
71774;BME280;59607;52.130;5.430;2023-05-22T00:26:50;101621.22;;;16.04;100.00
71774;BME280;59607;52.130;5.430;2023-05-22T00:29:16;101616.75;;;16.04;100.00
71774;BME280;59607;52.130;5.430;2023-05-22T00:31:47;101624.50;;;16.06;100.00
71774;BME280;59607;52.130;5.430;2023-05-22T00:34:14;101626.25;;;15.99;100.00
71774;BME280;59607;52.130;5.430;2023-05-22T00:36:40;101626.56;;;15.96;100.00
71774;BME280;59607;52.130;5.430;2023-05-22T00:39:12;101626.75;;;15.94;100.00
71774;BME280;59607;52.130;5.430;2023-05-22T00:41:38;101624.81;;;15.88;100.00
71774;BME280;59607;52.130;5.430;2023-05-22T00:44:10;101617.69;;;15.88;100.00
71774;BME280;59607;52.130;5.430;2023-05-22T00:46:39;101613.13;;;15.82;100.00
71774;BME280;59607;52.130;5.430;2023-05-22T00:49:12;101614.66;;;15.76;100.00
71774;BME280;59607;52.130;5.430;2023-05-22T00:51:38;101615.81;;;15.74;100.00
71774;BME280;59607;52.130;5.430;2023-05-22T00:54:05;101607.41;;;15.70;100.00
71774;BME280;59607;52.130;5.430;2023-05-22T00:56:32;101606.97;;;15.66;100.00
71774;BME280;59607;52.130;5.430;2023-05-22T00:59:02;101602.03;;;15.63;100.00
71774;BME280;59607;52.130;5.430;2023-05-22T01:01:29;101604.38;;;15.58;100.00
71774;BME280;59607;52.130;5.430;2023-05-22T01:04:04;101598.09;;;15.59;100.00
71774;BME280;59607;52.130;5.430;2023-05-22T01:06:33;101601.38;;;15.61;100.00
71774;BME280;59607;52.130;5.430;2023-05-22T01:09:03;101598.09;;;15.59;100.00
71774;BME280;59607;52.130;5.430;2023-05-22T01:12:00;101589.97;;;15.61;100.00
71774;BME280;59607;52.130;5.430;2023-05-22T01:20:39;101581.94;;;15.54;100.00
71774;BME280;59607;52.130;5.430;2023-05-22T01:26:19;101577.66;;;15.53;100.00
71774;BME280;59607;52.130;5.430;2023-05-22T01:32:20;101581.84;;;15.47;100.00
71774;BME280;59607;52.130;5.430;2023-05-22T01:34:52;101579.19;;;15.47;100.00
71774;BME280;59607;52.130;5.430;2023-05-22T01:37:19;101583.81;;;15.45;100.00
71774;BME280;59607;52.130;5.430;2023-05-22T01:39:50;101586.47;;;15.45;100.00
71774;BME280;59607;52.130;5.430;2023-05-22T01:42:27;101577.06;;;15.42;100.00
71774;BME280;59607;52.130;5.430;2023-05-22T01:44:53;101579.69;;;15.42;100.00
71774;BME280;59607;52.130;5.430;2023-05-22T01:47:22;101570.13;;;15.41;100.00
71774;BME280;59607;52.130;5.430;2023-05-22T01:49:52;101560.56;;;15.40;100.00
71774;BME280;59607;52.130;5.430;2023-05-22T01:55:21;101565.69;;;15.42;100.00
71774;BME280;59607;52.130;5.430;2023-05-22T01:57:59;101557.44;;;15.37;100.00
71774;BME280;59607;52.130;5.430;2023-05-22T02:00:31;101553.97;;;15.36;100.00
71774;BME280;59607;52.130;5.430;2023-05-22T02:03:14;101554.63;;;15.38;100.00
71774;BME280;59607;52.130;5.430;2023-05-22T02:05:50;101553.00;;;15.37;100.00
71774;BME280;59607;52.130;5.430;2023-05-22T02:08:21;101537.94;;;15.38;100.00
71774;BME280;59607;52.130;5.430;2023-05-22T02:10:53;101544.06;;;15.38;100.00
71774;BME280;59607;52.130;5.430;2023-05-22T02:13:22;101550.53;;;15.36;100.00
71774;BME280;59607;52.130;5.430;2023-05-22T02:15:50;101541.78;;;15.35;100.00
71774;BME280;59607;52.130;5.430;2023-05-22T02:18:19;101535.84;;;15.33;100.00
71774;BME280;59607;52.130;5.430;2023-05-22T02:20:51;101537.03;;;15.30;100.00
71774;BME280;59607;52.130;5.430;2023-05-22T02:23:23;101532.56;;;15.31;100.00
71774;BME280;59607;52.130;5.430;2023-05-22T02:25:50;101543.47;;;15.28;100.00
71774;BME280;59607;52.130;5.430;2023-05-22T02:28:17;101539.84;;;15.29;100.00
71774;BME280;59607;52.130;5.430;2023-05-22T02:30:48;101541.47;;;15.30;100.00
71774;BME280;59607;52.130;5.430;2023-05-22T02:33:22;101534.91;;;15.26;100.00
71774;BME280;59607;52.130;5.430;2023-05-22T02:35:51;101532.44;;;15.24;100.00
71774;BME280;59607;52.130;5.430;2023-05-22T02:38:36;101535.25;;;15.23;100.00
71774;BME280;59607;52.130;5.430;2023-05-22T02:41:03;101538.09;;;15.21;100.00
71774;BME280;59607;52.130;5.430;2023-05-22T02:43:29;101533.59;;;15.22;100.00
71774;BME280;59607;52.130;5.430;2023-05-22T02:46:01;101535.63;;;15.20;100.00
71774;BME280;59607;52.130;5.430;2023-05-22T02:48:28;101534.97;;;15.17;100.00
71774;BME280;59607;52.130;5.430;2023-05-22T02:50:58;101535.63;;;15.20;100.00
71774;BME280;59607;52.130;5.430;2023-05-22T02:53:24;101527.34;;;15.23;100.00
71774;BME280;59607;52.130;5.430;2023-05-22T02:55:51;101525.69;;;15.22;100.00
71774;BME280;59607;52.130;5.430;2023-05-22T02:58:23;101515.28;;;15.20;100.00
71774;BME280;59607;52.130;5.430;2023-05-22T03:00:54;101530.16;;;15.21;100.00
71774;BME280;59607;52.130;5.430;2023-05-22T03:03:20;101517.75;;;15.22;100.00
71774;BME280;59607;52.130;5.430;2023-05-22T03:05:50;101517.75;;;15.22;100.00
71774;BME280;59607;52.130;5.430;2023-05-22T03:08:26;101517.31;;;15.18;100.00
71774;BME280;59607;52.130;5.430;2023-05-22T03:10:55;101515.75;;;15.24;100.00
71774;BME280;59607;52.130;5.430;2023-05-22T03:13:22;101519.84;;;15.26;100.00
71774;BME280;59607;52.130;5.430;2023-05-22T03:15:53;101519.69;;;15.28;100.00
71774;BME280;59607;52.130;5.430;2023-05-22T03:18:21;101509.75;;;15.30;100.00
71774;BME280;59607;52.130;5.430;2023-05-22T03:20:51;101506.75;;;15.33;100.00
71774;BME280;59607;52.130;5.430;2023-05-22T03:23:22;101514.69;;;15.33;100.00
71774;BME280;59607;52.130;5.430;2023-05-22T03:25:50;101511.25;;;15.33;100.00
71774;BME280;59607;52.130;5.430;2023-05-22T03:28:31;101511.88;;;15.35;100.00
71774;BME280;59607;52.130;5.430;2023-05-22T03:30:58;101515.69;;;15.32;100.00
71774;BME280;59607;52.130;5.430;2023-05-22T03:33:26;101515.03;;;15.30;100.00
71774;BME280;59607;52.130;5.430;2023-05-22T03:35:53;101516.72;;;15.31;100.00
71774;BME280;59607;52.130;5.430;2023-05-22T03:38:19;101508.13;;;15.29;100.00
71774;BME280;59607;52.130;5.430;2023-05-22T03:40:51;101508.47;;;15.26;100.00
71774;BME280;59607;52.130;5.430;2023-05-22T03:43:18;101521.88;;;15.24;100.00
71774;BME280;59607;52.130;5.430;2023-05-22T03:45:47;101525.31;;;15.25;100.00
71774;BME280;59607;52.130;5.430;2023-05-22T03:48:14;101524.88;;;15.21;100.00
71774;BME280;59607;52.130;5.430;2023-05-22T03:50:41;101527.34;;;15.23;100.00
71774;BME280;59607;52.130;5.430;2023-05-22T03:53:07;101520.69;;;15.27;100.00
71774;BME280;59607;52.130;5.430;2023-05-22T03:55:59;101521.69;;;15.26;100.00
71774;BME280;59607;52.130;5.430;2023-05-22T03:58:26;101512.75;;;15.27;100.00
71774;BME280;59607;52.130;5.430;2023-05-22T04:01:04;101509.03;;;15.21;100.00
71774;BME280;59607;52.130;5.430;2023-05-22T04:03:30;101515.28;;;15.20;100.00
71774;BME280;59607;52.130;5.430;2023-05-22T04:06:08;101513.81;;;15.17;100.00
71774;BME280;59607;52.130;5.430;2023-05-22T04:08:36;101520.56;;;15.20;100.00
71774;BME280;59607;52.130;5.430;2023-05-22T04:11:02;101527.50;;;15.21;100.00
71774;BME280;59607;52.130;5.430;2023-05-22T04:13:33;101519.06;;;15.26;100.00
71774;BME280;59607;52.130;5.430;2023-05-22T04:16:09;101512.59;;;15.28;100.00
71774;BME280;59607;52.130;5.430;2023-05-22T04:18:35;101515.22;;;15.28;100.00
71774;BME280;59607;52.130;5.430;2023-05-22T04:21:05;101529.28;;;15.29;100.00
71774;BME280;59607;52.130;5.430;2023-05-22T04:23:37;101521.63;;;15.34;100.00
71774;BME280;59607;52.130;5.430;2023-05-22T04:26:10;101527.28;;;15.31;100.00
71774;BME280;59607;52.130;5.430;2023-05-22T04:28:36;101520.50;;;15.28;100.00
71774;BME280;59607;52.130;5.430;2023-05-22T04:31:03;101543.81;;;15.25;100.00
71774;BME280;59607;52.130;5.430;2023-05-22T04:33:34;101551.56;;;15.26;100.00
71774;BME280;59607;52.130;5.430;2023-05-22T04:36:05;101554.81;;;15.37;100.00
71774;BME280;59607;52.130;5.430;2023-05-22T04:38:33;101554.09;;;15.43;100.00
71774;BME280;59607;52.130;5.430;2023-05-22T04:41:02;101556.84;;;15.50;100.00
71774;BME280;59607;52.130;5.430;2023-05-22T04:43:29;101561.13;;;15.51;100.00
71774;BME280;59607;52.130;5.430;2023-05-22T04:46:21;101561.91;;;15.60;100.00
71774;BME280;59607;52.130;5.430;2023-05-22T04:48:51;101572.66;;;15.58;100.00
71774;BME280;59607;52.130;5.430;2023-05-22T04:51:24;101568.72;;;15.54;100.00
71774;BME280;59607;52.130;5.430;2023-05-22T04:53:57;101573.00;;;15.55;100.00
71774;BME280;59607;52.130;5.430;2023-05-22T04:56:27;101582.03;;;15.46;100.00
71774;BME280;59607;52.130;5.430;2023-05-22T04:59:05;101585.63;;;15.45;100.00
71774;BME280;59607;52.130;5.430;2023-05-22T05:01:38;101589.06;;;15.53;100.00
71774;BME280;59607;52.130;5.430;2023-05-22T05:04:11;101580.22;;;15.61;100.00
71774;BME280;59607;52.130;5.430;2023-05-22T05:06:47;101581.50;;;15.65;100.00
71774;BME280;59607;52.130;5.430;2023-05-22T05:09:20;101580.09;;;15.78;100.00
71774;BME280;59607;52.130;5.430;2023-05-22T05:11:50;101588.28;;;15.83;100.00
71774;BME280;59607;52.130;5.430;2023-05-22T05:14:21;101582.94;;;15.91;100.00
71774;BME280;59607;52.130;5.430;2023-05-22T05:16:47;101577.53;;;16.08;100.00
71774;BME280;59607;52.130;5.430;2023-05-22T05:19:14;101578.72;;;16.21;100.00
71774;BME280;59607;52.130;5.430;2023-05-22T05:21:46;101569.13;;;16.35;100.00
71774;BME280;59607;52.130;5.430;2023-05-22T05:24:17;101567.38;;;16.57;100.00
71774;BME280;59607;52.130;5.430;2023-05-22T05:26:49;101574.31;;;16.58;100.00
71774;BME280;59607;52.130;5.430;2023-05-22T05:29:16;101558.78;;;16.92;100.00
71774;BME280;59607;52.130;5.430;2023-05-22T05:31:52;101564.66;;;17.46;100.00
71774;BME280;59607;52.130;5.430;2023-05-22T05:34:18;101556.31;;;17.78;100.00
71774;BME280;59607;52.130;5.430;2023-05-22T05:36:48;101556.59;;;18.19;100.00
71774;BME280;59607;52.130;5.430;2023-05-22T05:39:14;101556.91;;;19.07;100.00
71774;BME280;59607;52.130;5.430;2023-05-22T05:41:41;101554.72;;;20.51;94.50
71774;BME280;59607;52.130;5.430;2023-05-22T05:44:07;101548.16;;;21.69;85.01
71774;BME280;59607;52.130;5.430;2023-05-22T05:46:34;101547.31;;;22.13;79.61
71774;BME280;59607;52.130;5.430;2023-05-22T05:49:07;101551.03;;;22.80;78.80
71774;BME280;59607;52.130;5.430;2023-05-22T05:51:37;101542.69;;;23.01;71.86
71774;BME280;59607;52.130;5.430;2023-05-22T05:54:06;101549.88;;;22.88;71.49
71774;BME280;59607;52.130;5.430;2023-05-22T05:56:33;101540.63;;;23.15;70.60
71774;BME280;59607;52.130;5.430;2023-05-22T05:59:05;101539.22;;;23.12;72.10
71774;BME280;59607;52.130;5.430;2023-05-22T06:01:33;101545.88;;;23.94;71.04
71774;BME280;59607;52.130;5.430;2023-05-22T06:04:03;101544.28;;;24.80;65.82
71774;BME280;59607;52.130;5.430;2023-05-22T06:06:32;101538.41;;;24.49;64.54
71774;BME280;59607;52.130;5.430;2023-05-22T06:09:05;101544.41;;;24.56;63.67
71774;BME280;59607;52.130;5.430;2023-05-22T06:11:32;101538.75;;;24.23;67.72
71774;BME280;59607;52.130;5.430;2023-05-22T06:14:05;101546.41;;;24.08;66.91
71774;BME280;59607;52.130;5.430;2023-05-22T06:16:39;101545.19;;;23.38;72.59
71774;BME280;59607;52.130;5.430;2023-05-22T06:19:11;101544.53;;;23.00;74.37
71774;BME280;59607;52.130;5.430;2023-05-22T06:21:42;101561.47;;;22.33;79.40
71774;BME280;59607;52.130;5.430;2023-05-22T06:24:14;101557.13;;;22.19;78.01
71774;BME280;59607;52.130;5.430;2023-05-22T06:26:48;101560.88;;;21.23;83.52
71774;BME280;59607;52.130;5.430;2023-05-22T06:29:17;101555.91;;;21.27;85.02
71774;BME280;59607;52.130;5.430;2023-05-22T06:31:43;101575.16;;;21.36;85.24
71774;BME280;59607;52.130;5.430;2023-05-22T06:34:10;101571.50;;;20.91;86.88
71774;BME280;59607;52.130;5.430;2023-05-22T06:36:39;101571.50;;;20.91;92.34
71774;BME280;59607;52.130;5.430;2023-05-22T06:39:07;101573.59;;;20.89;89.79
71774;BME280;59607;52.130;5.430;2023-05-22T06:41:33;101574.38;;;20.89;91.06
71774;BME280;59607;52.130;5.430;2023-05-22T06:44:10;101576.91;;;20.84;90.27
71774;BME280;59607;52.130;5.430;2023-05-22T06:46:37;101585.03;;;20.96;94.26
71774;BME280;59607;52.130;5.430;2023-05-22T06:49:07;101577.72;;;21.17;95.04
71774;BME280;59607;52.130;5.430;2023-05-22T06:51:33;101570.78;;;21.41;95.37
71774;BME280;59607;52.130;5.430;2023-05-22T06:54:00;101575.13;;;21.61;94.08
71774;BME280;59607;52.130;5.430;2023-05-22T06:56:30;101579.78;;;21.47;90.23
71774;BME280;59607;52.130;5.430;2023-05-22T06:59:00;101574.75;;;21.32;92.98
71774;BME280;59607;52.130;5.430;2023-05-22T07:01:26;101577.63;;;21.05;90.64
71774;BME280;59607;52.130;5.430;2023-05-22T07:04:01;101576.78;;;21.04;93.24
71774;BME280;59607;52.130;5.430;2023-05-22T07:06:30;101582.44;;;21.22;93.75
71774;BME280;59607;52.130;5.430;2023-05-22T07:08:59;101584.09;;;21.16;94.52
71774;BME280;59607;52.130;5.430;2023-05-22T07:11:33;101584.94;;;21.16;93.10
71774;BME280;59607;52.130;5.430;2023-05-22T07:14:34;101589.16;;;21.56;93.26
71774;BME280;59607;52.130;5.430;2023-05-22T07:17:27;101588.22;;;21.69;95.58
71774;BME280;59607;52.130;5.430;2023-05-22T07:19:54;101594.31;;;21.26;87.60
71774;BME280;59607;52.130;5.430;2023-05-22T07:22:21;101594.16;;;21.14;93.25
71774;BME280;59607;52.130;5.430;2023-05-22T07:24:53;101582.75;;;21.57;92.06
71774;BME280;59607;52.130;5.430;2023-05-22T07:27:20;101591.41;;;21.53;89.43
71774;BME280;59607;52.130;5.430;2023-05-22T07:29:49;101589.41;;;21.48;87.75
71774;BME280;59607;52.130;5.430;2023-05-22T07:32:16;101591.41;;;21.53;90.02
71774;BME280;59607;52.130;5.430;2023-05-22T07:34:42;101583.31;;;21.66;88.10
71774;BME280;59607;52.130;5.430;2023-05-22T07:37:12;101588.28;;;21.37;86.38
71774;BME280;59607;52.130;5.430;2023-05-22T07:39:40;101595.34;;;21.25;89.68
71774;BME280;59607;52.130;5.430;2023-05-22T07:42:07;101584.56;;;21.38;91.47
71774;BME280;59607;52.130;5.430;2023-05-22T07:44:33;101585.75;;;21.68;88.91
71774;BME280;59607;52.130;5.430;2023-05-22T07:47:06;101580.41;;;21.68;88.36
71774;BME280;59607;52.130;5.430;2023-05-22T07:49:32;101578.41;;;21.63;84.50
71774;BME280;59607;52.130;5.430;2023-05-22T07:52:07;101591.06;;;21.49;85.93
71774;BME280;59607;52.130;5.430;2023-05-22T07:54:33;101586.63;;;21.62;89.34
71774;BME280;59607;52.130;5.430;2023-05-22T07:57:00;101590.97;;;21.56;89.14
71774;BME280;59607;52.130;5.430;2023-05-22T07:59:31;101600.78;;;21.62;86.37
71774;BME280;59607;52.130;5.430;2023-05-22T08:01:59;101590.78;;;21.83;88.13
71774;BME280;59607;52.130;5.430;2023-05-22T08:04:26;101593.13;;;22.17;91.16
71774;BME280;59607;52.130;5.430;2023-05-22T08:06:57;101603.59;;;22.18;83.03
71774;BME280;59607;52.130;5.430;2023-05-22T08:09:25;101598.09;;;22.13;84.24
71774;BME280;59607;52.130;5.430;2023-05-22T08:11:58;101601.88;;;22.24;82.79
71774;BME280;59607;52.130;5.430;2023-05-22T08:14:24;101601.78;;;22.31;84.07
71774;BME280;59607;52.130;5.430;2023-05-22T08:16:50;101611.13;;;22.40;81.85
71774;BME280;59607;52.130;5.430;2023-05-22T08:19:17;101608.03;;;22.62;82.36
71774;BME280;59607;52.130;5.430;2023-05-22T08:21:47;101608.97;;;22.87;83.08
71774;BME280;59607;52.130;5.430;2023-05-22T08:24:15;101608.50;;;22.90;78.79
71774;BME280;59607;52.130;5.430;2023-05-22T08:26:48;101607.63;;;22.77;77.43
71774;BME280;59607;52.130;5.430;2023-05-22T08:29:14;101605.28;;;22.69;79.75
71774;BME280;59607;52.130;5.430;2023-05-22T08:31:56;101604.22;;;22.70;77.78
71774;BME280;59607;52.130;5.430;2023-05-22T08:34:30;101597.25;;;22.69;77.89
71774;BME280;59607;52.130;5.430;2023-05-22T08:36:57;101595.00;;;23.27;78.36
71774;BME280;59607;52.130;5.430;2023-05-22T08:39:33;101597.50;;;22.67;79.71
71774;BME280;59607;52.130;5.430;2023-05-22T08:42:00;101594.47;;;22.76;78.76
71774;BME280;59607;52.130;5.430;2023-05-22T08:44:39;101591.94;;;22.81;75.33
71774;BME280;59607;52.130;5.430;2023-05-22T08:47:12;101599.34;;;22.67;73.36
71774;BME280;59607;52.130;5.430;2023-05-22T08:49:42;101597.59;;;22.73;75.11
71774;BME280;59607;52.130;5.430;2023-05-22T08:52:35;101585.78;;;23.11;74.43
71774;BME280;59607;52.130;5.430;2023-05-22T08:55:32;101586.09;;;23.15;74.21
71774;BME280;59607;52.130;5.430;2023-05-22T08:58:05;101598.03;;;23.00;72.87
71774;BME280;59607;52.130;5.430;2023-05-22T09:00:35;101601.22;;;23.09;72.85
71774;BME280;59607;52.130;5.430;2023-05-22T09:03:07;101593.66;;;23.18;72.14
71774;BME280;59607;52.130;5.430;2023-05-22T09:05:43;101591.94;;;23.36;71.64
71774;BME280;59607;52.130;5.430;2023-05-22T09:08:13;101589.00;;;23.56;74.00
71774;BME280;59607;52.130;5.430;2023-05-22T09:10:46;101592.13;;;23.65;72.23
71774;BME280;59607;52.130;5.430;2023-05-22T09:13:28;101583.75;;;23.73;70.33
71774;BME280;59607;52.130;5.430;2023-05-22T09:16:13;101585.84;;;23.59;69.98
71774;BME280;59607;52.130;5.430;2023-05-22T09:18:40;101593.06;;;23.71;66.71
71774;BME280;59607;52.130;5.430;2023-05-22T09:21:16;101582.34;;;23.59;71.80
71774;BME280;59607;52.130;5.430;2023-05-22T09:23:59;101581.06;;;23.73;68.61
71774;BME280;59607;52.130;5.430;2023-05-22T09:26:27;101584.34;;;23.51;70.49
71774;BME280;59607;52.130;5.430;2023-05-22T09:29:00;101571.53;;;23.77;71.56
71774;BME280;59607;52.130;5.430;2023-05-22T09:31:27;101580.13;;;24.03;70.23
71774;BME280;59607;52.130;5.430;2023-05-22T09:33:59;101576.03;;;24.25;69.84
71774;BME280;59607;52.130;5.430;2023-05-22T09:36:31;101572.47;;;24.36;68.46
71774;BME280;59607;52.130;5.430;2023-05-22T09:39:06;101576.72;;;24.20;70.07
71774;BME280;59607;52.130;5.430;2023-05-22T09:41:34;101571.38;;;23.96;71.17
71774;BME280;59607;52.130;5.430;2023-05-22T09:44:12;101564.59;;;24.30;69.66
71774;BME280;59607;52.130;5.430;2023-05-22T09:46:43;101562.56;;;24.37;64.55
71774;BME280;59607;52.130;5.430;2023-05-22T09:49:13;101563.66;;;24.53;66.24
71774;BME280;59607;52.130;5.430;2023-05-22T09:51:46;101568.59;;;25.02;67.62
71774;BME280;59607;52.130;5.430;2023-05-22T09:54:15;101570.09;;;24.81;62.85
71774;BME280;59607;52.130;5.430;2023-05-22T09:56:43;101564.41;;;24.36;64.62
71774;BME280;59607;52.130;5.430;2023-05-22T09:59:11;101561.31;;;24.86;64.60
71774;BME280;59607;52.130;5.430;2023-05-22T10:01:43;101560.16;;;25.11;61.75
71774;BME280;59607;52.130;5.430;2023-05-22T10:04:21;101566.06;;;25.13;62.22
71774;BME280;59607;52.130;5.430;2023-05-22T10:06:52;101558.16;;;25.41;61.85
71774;BME280;59607;52.130;5.430;2023-05-22T10:09:38;101565.06;;;25.54;61.91
71774;BME280;59607;52.130;5.430;2023-05-22T10:12:10;101573.72;;;25.21;62.75
71774;BME280;59607;52.130;5.430;2023-05-22T10:14:56;101570.66;;;24.83;59.97
71774;BME280;59607;52.130;5.430;2023-05-22T10:17:29;101574.47;;;24.87;60.18
71774;BME280;59607;52.130;5.430;2023-05-22T10:19:57;101569.63;;;25.01;61.41
71774;BME280;59607;52.130;5.430;2023-05-22T10:22:33;101568.19;;;25.11;61.13
71774;BME280;59607;52.130;5.430;2023-05-22T10:25:07;101563.28;;;25.08;61.00
71774;BME280;59607;52.130;5.430;2023-05-22T10:27:38;101557.06;;;24.73;64.76
71774;BME280;59607;52.130;5.430;2023-05-22T10:32:52;101560.72;;;25.30;62.39
71774;BME280;59607;52.130;5.430;2023-05-22T10:35:31;101555.03;;;25.66;62.35
71774;BME280;59607;52.130;5.430;2023-05-22T10:38:28;101557.16;;;25.47;62.01
71774;BME280;59607;52.130;5.430;2023-05-22T10:41:00;101554.34;;;25.36;58.97
71774;BME280;59607;52.130;5.430;2023-05-22T10:43:30;101545.69;;;25.69;56.22
71774;BME280;59607;52.130;5.430;2023-05-22T10:46:03;101550.63;;;25.60;55.37
71774;BME280;59607;52.130;5.430;2023-05-22T10:48:40;101553.50;;;25.70;54.93
71774;BME280;59607;52.130;5.430;2023-05-22T10:51:17;101550.50;;;25.67;56.16
71774;BME280;59607;52.130;5.430;2023-05-22T10:53:52;101550.41;;;25.79;57.36
71774;BME280;59607;52.130;5.430;2023-05-22T10:56:32;101551.66;;;25.93;55.99
71774;BME280;59607;52.130;5.430;2023-05-22T10:59:00;101549.66;;;25.83;54.34
71774;BME280;59607;52.130;5.430;2023-05-22T11:01:31;101553.09;;;26.01;54.38
71774;BME280;59607;52.130;5.430;2023-05-22T11:06:38;101552.53;;;26.44;55.31
71774;BME280;59607;52.130;5.430;2023-05-22T11:15:05;101548.22;;;25.98;56.04
71774;BME280;59607;52.130;5.430;2023-05-22T11:17:46;101544.78;;;26.53;54.02
71774;BME280;59607;52.130;5.430;2023-05-22T11:20:23;101539.47;;;26.58;55.90
71774;BME280;59607;52.130;5.430;2023-05-22T11:23:04;101535.09;;;26.79;55.23
71774;BME280;59607;52.130;5.430;2023-05-22T11:25:39;101533.44;;;26.78;54.39
71774;BME280;59607;52.130;5.430;2023-05-22T11:28:13;101530.28;;;26.86;53.35
71774;BME280;59607;52.130;5.430;2023-05-22T11:30:49;101532.16;;;26.53;54.31
71774;BME280;59607;52.130;5.430;2023-05-22T11:33:17;101533.06;;;26.36;53.85
71774;BME280;59607;52.130;5.430;2023-05-22T11:35:52;101527.94;;;26.35;54.93
71774;BME280;59607;52.130;5.430;2023-05-22T11:38:21;101516.00;;;26.81;55.50
71774;BME280;59607;52.130;5.430;2023-05-22T11:40:53;101522.13;;;27.04;52.61
71774;BME280;59607;52.130;5.430;2023-05-22T11:43:30;101526.00;;;26.85;53.27
71774;BME280;59607;52.130;5.430;2023-05-22T11:46:08;101522.25;;;26.92;52.29
71774;BME280;59607;52.130;5.430;2023-05-22T11:48:39;101519.97;;;27.06;50.78
71774;BME280;59607;52.130;5.430;2023-05-22T11:51:07;101515.44;;;27.12;51.21
71774;BME280;59607;52.130;5.430;2023-05-22T11:53:40;101513.66;;;27.28;50.98
71774;BME280;59607;52.130;5.430;2023-05-22T11:56:06;101513.16;;;26.98;49.94
71774;BME280;59607;52.130;5.430;2023-05-22T11:58:41;101518.13;;;27.12;50.05
71774;BME280;59607;52.130;5.430;2023-05-22T12:01:07;101513.50;;;27.02;50.25
71774;BME280;59607;52.130;5.430;2023-05-22T12:03:34;101517.81;;;27.46;52.46
71774;BME280;59607;52.130;5.430;2023-05-22T12:06:09;101513.91;;;27.69;49.72
71774;BME280;59607;52.130;5.430;2023-05-22T12:08:42;101521.00;;;27.91;48.29
71774;BME280;59607;52.130;5.430;2023-05-22T12:11:10;101516.97;;;27.99;47.81
71774;BME280;59607;52.130;5.430;2023-05-22T12:13:40;101516.50;;;28.13;46.91
71774;BME280;59607;52.130;5.430;2023-05-22T12:16:18;101516.97;;;27.99;47.17
71774;BME280;59607;52.130;5.430;2023-05-22T12:18:59;101520.94;;;27.81;48.14
71774;BME280;59607;52.130;5.430;2023-05-22T12:21:34;101517.06;;;27.61;47.49
71774;BME280;59607;52.130;5.430;2023-05-22T12:24:06;101523.81;;;27.64;50.81
71774;BME280;59607;52.130;5.430;2023-05-22T12:26:36;101514.78;;;27.91;49.42
71774;BME280;59607;52.130;5.430;2023-05-22T12:29:03;101523.22;;;28.15;49.63
71774;BME280;59607;52.130;5.430;2023-05-22T12:31:34;101510.34;;;28.54;47.52
71774;BME280;59607;52.130;5.430;2023-05-22T12:34:06;101516.56;;;28.91;48.52
71774;BME280;59607;52.130;5.430;2023-05-22T12:36:42;101519.81;;;28.72;45.89
71774;BME280;59607;52.130;5.430;2023-05-22T12:39:11;101516.75;;;28.21;46.37
71774;BME280;59607;52.130;5.430;2023-05-22T12:41:39;101514.84;;;27.47;48.38
71774;BME280;59607;52.130;5.430;2023-05-22T12:44:09;101511.41;;;26.81;50.74
71774;BME280;59607;52.130;5.430;2023-05-22T12:46:39;101522.00;;;26.60;50.36
71774;BME280;59607;52.130;5.430;2023-05-22T12:49:07;101512.41;;;26.15;51.53
71774;BME280;59607;52.130;5.430;2023-05-22T12:51:34;101508.75;;;26.26;55.54
71774;BME280;59607;52.130;5.430;2023-05-22T12:54:01;101510.97;;;26.95;51.13
71774;BME280;59607;52.130;5.430;2023-05-22T12:56:33;101523.56;;;26.84;50.15
71774;BME280;59607;52.130;5.430;2023-05-22T12:59:01;101520.25;;;26.44;53.33
71774;BME280;59607;52.130;5.430;2023-05-22T13:01:38;101505.28;;;26.91;52.25
71774;BME280;59607;52.130;5.430;2023-05-22T13:04:05;101516.56;;;27.21;51.13
71774;BME280;59607;52.130;5.430;2023-05-22T13:06:37;101519.28;;;27.21;52.96
71774;BME280;59607;52.130;5.430;2023-05-22T13:09:03;101537.38;;;26.65;54.59
71774;BME280;59607;52.130;5.430;2023-05-22T13:11:30;101535.91;;;26.30;56.28
71774;BME280;59607;52.130;5.430;2023-05-22T13:14:02;101526.16;;;25.73;57.38
71774;BME280;59607;52.130;5.430;2023-05-22T13:16:33;101527.50;;;25.36;59.21
71774;BME280;59607;52.130;5.430;2023-05-22T13:19:06;101542.31;;;25.05;60.34
71774;BME280;59607;52.130;5.430;2023-05-22T13:21:35;101540.56;;;24.81;60.59
71774;BME280;59607;52.130;5.430;2023-05-22T13:24:08;101538.06;;;24.92;62.31
71774;BME280;59607;52.130;5.430;2023-05-22T13:26:35;101540.00;;;25.65;58.22
71774;BME280;59607;52.130;5.430;2023-05-22T13:29:02;101534.59;;;25.25;57.57
71774;BME280;59607;52.130;5.430;2023-05-22T13:31:33;101543.44;;;24.92;61.27
71774;BME280;59607;52.130;5.430;2023-05-22T13:34:12;101542.28;;;24.87;58.69